My Meet Scores
Isabella Warner, American Gymnastics Training Center - MyMeetScores.com
Top100 | Top Teams | Upcoming Meets | Completed Meets | Latest | Add Scores | Help| Support | Bookmark and Share

Isabella Warner, American Gymnastics Training Center
Personal Bests
LevelVault BarsBeamFloorAA
XB9.2509.600 9.4259.45037.425
XG9.0509.450 9.3009.45036.000
XS9.4009.800 9.8009.57537.600
Meet Scores
Date Meet Team Session Level Division Vault Bars Beam Floor AA
2019-04-27 Xcel Gold, Platinum, Diamond State Championsh American Gymnastics Training Center 1 XG Jr D 8.800 42T 8.050 46T 9.275 8T 9.175 11T 35.300 33
2019-02-22 Pink Invitational ~ Gymnasts Unite American Gymnastics Training Center UC1 XG 13 yrs. 8.450 20 9.450 3 8.750 15T 9.200 9T 35.850 13T
2019-02-16 Chelsea Piers Winter Challenge American Gymnastics Training Center F3 XG Middle 9.050 9T 8.550 13 8.950 12 9.450 5 36.000 11
2019-01-25 Kinetic Kids Invitational 2019 American Gymnastics Training Center 6 XG Jr D 9.000 6 8.750 8T 8.650 5T 9.000 5T 35.400 6
2019-01-18 22nd Annual Star Struck Invitational American Gymnastics Training Center 5D XG Sr A 8.000 13T 7.850 15 9.300 3 9.125 5 34.275 10T
2018-12-08 American Gymnastics Invitational American Gymnastics Training Center 1 XG Junior 8.750 3 8.000 7 8.800 5 9.000 5 34.550 5
2018-11-17 2018 Connecticut Judge's Cup American Gymnastics Training Center 9 XG 13+ yrs. 8.250 37T 9.200 10T 9.000 15T 9.275 3 35.725 11
2018-11-02 Muriel Grossfeld Invitational American Gymnastics Training Center 6 XG Sr A 8.925 6 9.000 4 9.050 2 8.450 13 35.425 4
2018-05-19 2018 Region 6 Xcel Championships American Gymnastics Training Center 1 XS SR 8.325 16 9.125 18 9.125 9T 8.775 17T 35.350 18
2018-05-05 2018 CT XCEL Silver State Championships American Gymnastics Training Center 3 XS Sr C 9.275 2 9.250 2T 9.350 3T 9.525 4T 37.400 3
2018-02-16 Chelsea Piers Winter Challenge American Gymnastics Training Center F-2 XS JR B 9.400 2 9.275 5 9.300 4T 9.275 4T 37.250 2
2018-02-09 Team Challenge 2018 American Gymnastics Training Center 04B XS Sr B 8.725 7 8.900 8 9.800 1 9.175 4 36.600 6
2018-01-26 2018 American Invitational American Gymnastics Training Center 3B XS Middle 8.750 10 9.350 7 9.625 1 9.250 4 36.975 4
2018-01-19 Beauty And The Beast Invitational American Gymnastics Training Center 14 XS D 9.250 4 9.500 4 9.525 2 9.325 2 37.600 3
2017-05-06 2017 Connecticut XS State Championships American Gymnastics Training Center 5 XS Jr E 8.900 8 9.200 5 9.125 7 9.575 2 36.800 6
2017-03-02 2017 Holiday Costume Cup American Gymnastics Training Center 4 XS Middle 9.150 6 9.800 1 9.300 7T 9.200 6 37.450 4
2017-02-10 Team Challenge 2017 American Gymnastics Training Center 06B XS Inter 9.000 8 9.150 5 8.950 4T 9.200 2 36.300 4
2017-01-27 24th Annual American Invitational American Gymnastics Training Center 2A XS Junior 8.725 5T 9.375 4 9.075 7 8.600 15 35.775 11
2017-01-13 20th Annual Star Struck Invitational American Gymnastics Training Center 2D XS Sr A 8.650 9 9.250 2 9.100 4 8.900 8 35.900 5
2016-05-15 2016 Connecticut XB State Cup American Gymnastics Training Center 2 XB All Ages 9.225 8 9.600 1* 9.425 15T 9.175 5T 37.425 3T
2016-02-13 Chelsea Piers Winter Challenge American Gymnastics Training Center CT5 XB JR 8.825 13T 9.425 4 9.300 11 9.450 1 37.000 2
2016-02-05 Lets Make A Deal American Gymnastics Training Center 7 XB Dime 9.250 12T 9.250 15T 9.150 14T 9.200 14T 36.850 12T
2016-01-28 2016 American Invitational American Gymnastics Training Center 1A XB Junior 8.550 4T 9.350 3T 9.000 5 9.175 1 36.075 5
2015-03-05 Holiday Costume Cup 2015 American Gymnastics Training Center 6 XB Older 7.950 13 9.100 6T 9.050 3 8.850 7 34.950 8T
Get your scores on
a t-shirt, pin, or hoodie

www.lazysuits.com